createdAt,value
2019-02-15T00:00:40.627Z,74.82
2019-02-15T00:03:07.562Z,74.95
2019-02-15T00:05:33.391Z,74.81
2019-02-15T00:07:59.188Z,74.73
2019-02-15T00:10:25.014Z,74.88
2019-02-15T00:12:50.827Z,74.63
2019-02-15T00:15:19.418Z,74.77
2019-02-15T00:17:49.691Z,74.77
2019-02-15T00:20:17.707Z,74.43
2019-02-15T00:22:43.537Z,74.04
2019-02-15T00:25:09.362Z,73.56
2019-02-15T00:27:35.155Z,73.62
2019-02-15T00:30:08.344Z,73.64
2019-02-15T00:32:34.262Z,73.40
2019-02-15T00:35:00.256Z,73.60
2019-02-15T00:37:26.363Z,73.21
2019-02-15T00:39:52.167Z,72.70
2019-02-15T00:42:18.261Z,72.17
2019-02-15T00:44:44.347Z,71.58
2019-02-15T00:47:15.112Z,71.50
2019-02-15T00:49:41.521Z,71.48
2019-02-15T00:52:12.130Z,72.00
2019-02-15T00:54:40.124Z,72.31
2019-02-15T00:57:17.078Z,71.95
2019-02-15T00:59:54.101Z,72.88
2019-02-15T01:02:21.851Z,73.28
2019-02-15T01:04:55.624Z,73.69
2019-02-15T01:07:40.194Z,73.36
2019-02-15T01:10:14.175Z,73.06
2019-02-15T01:12:41.892Z,72.98
2019-02-15T01:15:07.695Z,72.87
2019-02-15T01:17:33.520Z,72.72
2019-02-15T01:19:59.428Z,72.80
2019-02-15T01:22:25.295Z,73.54
2019-02-15T01:24:51.235Z,74.43
2019-02-15T01:27:19.236Z,74.48
2019-02-15T01:29:46.924Z,74.45
2019-02-15T01:32:29.800Z,74.58
2019-02-15T01:35:06.133Z,74.79
2019-02-15T01:37:33.868Z,74.07
2019-02-15T01:40:10.996Z,73.83
2019-02-15T01:42:45.226Z,72.46
2019-02-15T01:45:22.291Z,73.00
2019-02-15T01:47:48.375Z,73.70
2019-02-15T01:50:14.192Z,73.68
2019-02-15T01:52:39.996Z,74.29
2019-02-15T01:55:06.064Z,74.61
2019-02-15T01:57:31.906Z,74.18
2019-02-15T01:59:57.796Z,73.68
2019-02-15T02:02:25.435Z,72.88
2019-02-15T02:04:51.239Z,73.10
2019-02-15T02:07:17.016Z,73.04
2019-02-15T02:09:42.816Z,73.42
2019-02-15T02:12:09.064Z,73.43
2019-02-15T02:14:35.134Z,73.97
2019-02-15T02:17:01.244Z,74.74
2019-02-15T02:19:27.067Z,75.32
2019-02-15T02:21:53.139Z,75.40
2019-02-15T02:24:18.963Z,75.47
2019-02-15T02:26:44.786Z,75.53
2019-02-15T02:29:10.837Z,76.00
2019-02-15T02:31:36.785Z,76.06
2019-02-15T02:34:02.733Z,75.39
2019-02-15T02:36:46.479Z,74.51
2019-02-15T02:39:12.276Z,73.38
2019-02-15T02:41:38.376Z,72.39
2019-02-15T02:44:04.221Z,71.89
2019-02-15T02:46:30.053Z,71.96
2019-02-15T02:48:55.838Z,71.67
2019-02-15T02:51:21.673Z,71.36
2019-02-15T02:53:47.475Z,70.73
2019-02-15T02:56:13.500Z,69.93
2019-02-15T02:58:39.569Z,69.62
2019-02-15T03:01:05.380Z,69.26
2019-02-15T03:03:31.178Z,69.15
2019-02-15T03:05:56.986Z,69.56
2019-02-15T03:08:23.079Z,69.66
2019-02-15T03:10:49.167Z,69.86
2019-02-15T03:13:14.952Z,70.13
2019-02-15T03:15:40.778Z,69.50
2019-02-15T03:18:06.837Z,69.21
2019-02-15T03:20:32.639Z,68.69
2019-02-15T03:22:58.662Z,68.32
2019-02-15T03:25:24.464Z,67.96
2019-02-15T03:27:50.787Z,67.55
2019-02-15T03:30:16.614Z,67.58
2019-02-15T03:32:42.430Z,68.10
2019-02-15T03:35:08.583Z,68.34
2019-02-15T03:37:36.304Z,68.54
2019-02-15T03:40:06.358Z,69.57
2019-02-15T03:42:32.441Z,70.33
2019-02-15T03:44:58.257Z,71.76
2019-02-15T03:47:24.892Z,71.95
2019-02-15T03:49:50.710Z,72.41
2019-02-15T03:52:16.766Z,72.73
2019-02-15T03:54:42.586Z,72.94
2019-02-15T03:57:08.420Z,72.86
2019-02-15T03:59:34.228Z,73.52
2019-02-15T04:02:00.132Z,73.98
2019-02-15T04:04:25.936Z,74.25
2019-02-15T04:06:51.958Z,74.34
2019-02-15T04:09:17.795Z,74.96
2019-02-15T04:11:46.640Z,74.62
2019-02-15T04:14:12.678Z,74.38
2019-02-15T04:16:41.243Z,73.98
2019-02-15T04:19:07.047Z,73.12
2019-02-15T04:21:35.060Z,72.06
2019-02-15T04:24:01.211Z,71.20
2019-02-15T04:26:32.013Z,70.90
2019-02-15T04:28:57.839Z,70.76
2019-02-15T04:31:23.640Z,70.24
2019-02-15T04:33:49.507Z,70.55
2019-02-15T04:36:15.289Z,71.32
2019-02-15T04:38:44.098Z,71.99
2019-02-15T04:41:10.204Z,72.80
2019-02-15T04:43:39.353Z,73.97
2019-02-15T04:46:05.122Z,74.43
2019-02-15T04:48:31.210Z,74.63
2019-02-15T04:50:57.015Z,74.64
2019-02-15T04:53:25.214Z,74.82
2019-02-15T04:55:51.290Z,74.99
2019-02-15T04:58:20.171Z,75.01
2019-02-15T05:00:45.991Z,74.81
2019-02-15T05:03:19.509Z,74.24
2019-02-15T05:05:44.992Z,73.80
2019-02-15T05:08:10.794Z,73.85
2019-02-15T05:10:36.615Z,73.61
2019-02-15T05:13:02.425Z,73.79
2019-02-15T05:15:28.218Z,74.22
2019-02-15T05:17:54.002Z,74.86
2019-02-15T05:20:22.861Z,75.38
2019-02-15T05:22:48.693Z,76.01
2019-02-15T05:25:17.301Z,75.67
2019-02-15T05:27:43.383Z,75.78
2019-02-15T05:30:12.216Z,75.68
2019-02-15T05:32:38.288Z,75.96
2019-02-15T05:35:07.307Z,76.17
2019-02-15T05:37:33.416Z,75.65
2019-02-15T05:40:00.606Z,75.21
2019-02-15T05:42:26.483Z,74.55
2019-02-15T05:44:52.340Z,73.89
2019-02-15T05:47:18.456Z,73.82
2019-02-15T05:49:44.376Z,74.57
2019-02-15T05:52:12.970Z,75.35
2019-02-15T05:54:38.746Z,75.87
2019-02-15T05:57:04.563Z,76.17
2019-02-15T05:59:30.372Z,76.28
2019-02-15T06:01:56.202Z,76.35
2019-02-15T06:04:25.235Z,76.75
2019-02-15T06:06:51.046Z,76.87
2019-02-15T06:09:19.809Z,77.32
2019-02-15T06:11:45.869Z,77.12
2019-02-15T06:14:14.634Z,76.30
2019-02-15T06:16:40.459Z,76.00
2019-02-15T06:19:09.661Z,75.93
2019-02-15T06:21:35.502Z,75.73
2019-02-15T06:24:04.286Z,75.33
2019-02-15T06:26:30.345Z,74.24
2019-02-15T06:28:59.217Z,74.00
2019-02-15T06:31:25.011Z,74.17
2019-02-15T06:33:52.885Z,74.42
2019-02-15T06:36:18.670Z,74.58
2019-02-15T06:38:49.119Z,74.83
2019-02-15T06:41:14.919Z,74.55
2019-02-15T06:43:43.587Z,74.81
2019-02-15T06:46:09.394Z,74.75
2019-02-15T06:48:36.362Z,75.35
2019-02-15T06:51:02.445Z,75.73
2019-02-15T06:53:31.530Z,76.09
2019-02-15T06:55:57.342Z,76.31
2019-02-15T06:58:23.417Z,75.81
2019-02-15T07:01:06.366Z,74.79
2019-02-15T07:03:35.415Z,73.44
2019-02-15T07:06:01.273Z,71.13
2019-02-15T07:08:27.336Z,68.11
2019-02-15T07:10:53.175Z,65.23
2019-02-15T07:13:19.199Z,63.28
2019-02-15T07:15:45.327Z,61.18
2019-02-15T07:18:11.413Z,58.57
2019-02-15T07:20:37.502Z,57.49
2019-02-15T07:23:03.613Z,57.22
2019-02-15T07:25:29.419Z,56.22
2019-02-15T07:27:55.260Z,54.75
2019-02-15T07:30:21.047Z,54.02
2019-02-15T07:32:46.869Z,52.33
2019-02-15T07:35:12.975Z,50.69
2019-02-15T07:37:38.797Z,48.93
2019-02-15T07:40:06.799Z,47.65
2019-02-15T07:42:32.590Z,46.89
2019-02-15T07:44:58.431Z,46.00
2019-02-15T07:47:24.261Z,47.34
2019-02-15T07:49:50.091Z,47.52
2019-02-15T07:52:18.921Z,46.33
2019-02-15T07:54:44.735Z,44.91
2019-02-15T07:57:13.298Z,43.96
2019-02-15T07:59:39.191Z,43.81
2019-02-15T08:02:08.167Z,45.25
2019-02-15T08:04:33.974Z,45.09
2019-02-15T08:07:02.879Z,44.66
2019-02-15T08:09:28.948Z,42.94
2019-02-15T08:11:55.044Z,41.15
2019-02-15T08:14:20.870Z,40.55
2019-02-15T08:16:46.703Z,38.64
2019-02-15T08:19:13.592Z,37.26
2019-02-15T08:21:39.393Z,36.63
2019-02-15T08:24:08.391Z,37.36
2019-02-15T08:26:34.207Z,36.05
2019-02-15T08:29:04.891Z,37.50
2019-02-15T08:31:30.685Z,35.47
2019-02-15T08:33:58.370Z,35.25
2019-02-15T08:36:24.482Z,34.80
2019-02-15T08:38:53.305Z,34.05
2019-02-15T08:41:19.392Z,34.08
2019-02-15T08:43:48.124Z,33.34
2019-02-15T08:46:13.944Z,33.22
2019-02-15T08:48:45.943Z,34.38
2019-02-15T08:51:07.519Z,34.59
2019-02-15T08:53:33.415Z,33.65
2019-02-15T08:55:59.245Z,33.58
2019-02-15T08:58:25.038Z,32.97
2019-02-15T09:00:55.644Z,32.11
2019-02-15T09:03:22.064Z,32.36
2019-02-15T09:05:50.725Z,31.26
2019-02-15T09:08:16.547Z,31.22
2019-02-15T09:10:45.391Z,30.35
2019-02-15T09:13:11.185Z,30.38
2019-02-15T09:15:40.289Z,28.55
2019-02-15T09:18:06.090Z,29.55
2019-02-15T09:20:35.173Z,28.24
2019-02-15T09:23:00.986Z,28.01
2019-02-15T09:25:26.760Z,30.92
2019-02-15T09:28:12.997Z,29.21
2019-02-15T09:30:39.084Z,27.25
2019-02-15T09:33:04.964Z,28.71
2019-02-15T09:35:30.873Z,29.06
2019-02-15T09:37:56.723Z,28.29
2019-02-15T09:40:22.519Z,28.39
2019-02-15T09:42:48.615Z,28.17
2019-02-15T09:45:14.713Z,28.54
2019-02-15T09:47:40.932Z,28.26
2019-02-15T09:50:09.843Z,27.95
2019-02-15T09:52:36.619Z,28.62
2019-02-15T09:55:02.675Z,28.37
2019-02-15T09:57:28.526Z,28.05
2019-02-15T09:59:54.324Z,27.50
2019-02-15T10:02:20.113Z,28.84
2019-02-15T10:04:45.936Z,27.60
2019-02-15T10:07:11.716Z,28.00
2019-02-15T10:09:37.804Z,27.25
2019-02-15T10:12:03.627Z,27.86
2019-02-15T10:14:29.684Z,27.19
2019-02-15T10:16:55.761Z,27.78
2019-02-15T10:19:22.600Z,27.41
2019-02-15T10:21:48.812Z,28.30
2019-02-15T10:24:14.935Z,28.18
2019-02-15T10:26:40.748Z,28.12
2019-02-15T10:29:09.840Z,29.18
2019-02-15T10:31:35.666Z,28.40
2019-02-15T10:34:04.443Z,28.43
2019-02-15T10:36:30.258Z,28.76
2019-02-15T10:38:56.146Z,28.51
2019-02-15T10:41:21.939Z,28.86
2019-02-15T10:43:48.040Z,29.28
2019-02-15T10:46:15.358Z,29.26
2019-02-15T10:48:41.157Z,29.11
2019-02-15T10:51:09.608Z,29.45
2019-02-15T10:53:35.448Z,28.22
2019-02-15T10:56:07.045Z,28.25
2019-02-15T10:58:32.844Z,28.32
2019-02-15T11:01:01.621Z,28.01
2019-02-15T11:03:27.635Z,27.76
2019-02-15T11:05:56.561Z,28.50
2019-02-15T11:08:22.638Z,29.25
2019-02-15T11:10:48.459Z,29.69
2019-02-15T11:13:14.308Z,30.24
2019-02-15T11:15:40.390Z,29.38
2019-02-15T11:18:06.421Z,28.91
2019-02-15T11:20:32.252Z,29.30
2019-02-15T11:23:01.088Z,29.87
2019-02-15T11:25:26.917Z,29.50
2019-02-15T11:27:54.871Z,29.80
2019-02-15T11:30:20.863Z,29.68
2019-02-15T11:32:49.990Z,29.75
2019-02-15T11:35:15.825Z,29.64
2019-02-15T11:37:44.889Z,29.64
2019-02-15T11:40:13.890Z,29.13
2019-02-15T11:42:39.686Z,29.93
2019-02-15T11:45:08.388Z,30.34
2019-02-15T11:47:34.207Z,29.12
2019-02-15T11:50:00.364Z,30.17
2019-02-15T11:52:26.268Z,29.92
2019-02-15T11:54:52.342Z,30.60
2019-02-15T11:57:18.170Z,30.84
2019-02-15T11:59:47.282Z,30.23
2019-02-15T12:02:13.376Z,29.40
2019-02-15T12:04:42.026Z,29.67
2019-02-15T12:07:07.863Z,30.63
2019-02-15T12:09:34.891Z,30.20
2019-02-15T12:12:00.713Z,29.60
2019-02-15T12:14:31.087Z,29.27
2019-02-15T12:17:05.250Z,29.22
2019-02-15T12:19:24.873Z,28.59
2019-02-15T12:21:50.676Z,28.87
2019-02-15T12:24:19.867Z,29.70
2019-02-15T12:26:45.661Z,29.72
2019-02-15T12:29:11.707Z,30.00
2019-02-15T12:31:37.817Z,29.94
2019-02-15T12:34:03.856Z,29.49
2019-02-15T12:36:31.244Z,29.68
2019-02-15T12:38:57.069Z,30.20
2019-02-15T12:41:25.731Z,30.22
2019-02-15T12:43:51.573Z,30.20
2019-02-15T12:46:22.503Z,29.82
2019-02-15T12:48:48.584Z,29.40
2019-02-15T12:51:17.584Z,29.11
2019-02-15T12:53:43.429Z,29.92
2019-02-15T12:56:11.983Z,28.91
2019-02-15T12:58:37.832Z,29.55
2019-02-15T13:01:06.489Z,29.41
2019-02-15T13:03:32.298Z,29.15
2019-02-15T13:05:58.116Z,28.68
2019-02-15T13:08:24.187Z,29.15
2019-02-15T13:10:50.111Z,28.79
2019-02-15T13:13:16.244Z,28.89
2019-02-15T13:15:44.049Z,29.03
2019-02-15T13:18:13.018Z,29.41
2019-02-15T13:20:38.856Z,28.23
2019-02-15T13:23:07.677Z,28.23
2019-02-15T13:25:36.824Z,28.76
2019-02-15T13:28:01.252Z,28.76
2019-02-15T13:30:27.055Z,28.67
2019-02-15T13:32:55.965Z,28.89
2019-02-15T13:35:22.833Z,29.04
2019-02-15T13:37:51.939Z,29.03
2019-02-15T13:40:17.746Z,29.03
2019-02-15T13:42:43.553Z,28.30
2019-02-15T13:45:10.860Z,28.23
2019-02-15T13:47:36.938Z,28.55
2019-02-15T13:50:04.963Z,28.85
2019-02-15T13:52:30.790Z,27.98
2019-02-15T13:54:56.608Z,28.74
2019-02-15T13:57:22.489Z,28.73
2019-02-15T13:59:50.944Z,28.61
2019-02-15T14:02:16.755Z,28.37
2019-02-15T14:04:47.220Z,28.37
2019-02-15T14:07:17.234Z,28.50
2019-02-15T14:09:43.082Z,28.53
2019-02-15T14:12:08.894Z,28.53
2019-02-15T14:14:34.809Z,27.63
2019-02-15T14:17:00.935Z,28.22
2019-02-15T14:19:26.756Z,27.54
2019-02-15T14:21:52.585Z,28.10
2019-02-15T14:24:18.387Z,28.05
2019-02-15T14:26:47.088Z,27.71
2019-02-15T14:29:12.931Z,27.39
2019-02-15T14:31:41.826Z,27.39
2019-02-15T14:34:07.900Z,27.68
2019-02-15T14:36:36.331Z,27.93
2019-02-15T14:39:04.233Z,27.69
2019-02-15T14:41:33.091Z,28.17
2019-02-15T14:43:58.924Z,27.63
2019-02-15T14:46:27.526Z,27.82
2019-02-15T14:48:53.609Z,28.40
2019-02-15T14:51:22.722Z,28.14
2019-02-15T14:53:48.533Z,28.14
2019-02-15T14:56:14.360Z,27.55
2019-02-15T14:58:40.162Z,28.02
2019-02-15T15:01:05.949Z,27.20
2019-02-15T15:03:32.289Z,27.53
2019-02-15T15:05:58.125Z,27.78
2019-02-15T15:08:27.162Z,27.78
2019-02-15T15:10:53.012Z,27.94
2019-02-15T15:13:23.754Z,27.94
2019-02-15T15:15:49.563Z,28.22
2019-02-15T15:18:18.635Z,28.53
2019-02-15T15:20:44.428Z,28.67
2019-02-15T15:23:13.303Z,28.44
2019-02-15T15:25:39.096Z,29.30
2019-02-15T15:28:07.665Z,28.78
2019-02-15T15:30:33.824Z,29.94
2019-02-15T15:32:59.631Z,30.79
2019-02-15T15:35:26.272Z,30.01
2019-02-15T15:37:52.104Z,30.01
2019-02-15T15:40:18.214Z,29.49
2019-02-15T15:42:44.079Z,29.71
2019-02-15T15:45:12.797Z,29.19
2019-02-15T15:47:38.819Z,27.55
2019-02-15T15:50:11.305Z,28.05
2019-02-15T15:52:37.173Z,28.15
2019-02-15T15:55:04.052Z,28.50
2019-02-15T15:57:29.878Z,29.09
2019-02-15T15:59:59.219Z,29.01
2019-02-15T16:02:25.284Z,29.02
2019-02-15T16:04:51.131Z,28.31
2019-02-15T16:07:16.936Z,27.72
2019-02-15T16:09:42.773Z,27.79
2019-02-15T16:12:08.804Z,27.11
2019-02-15T16:14:34.877Z,27.28
2019-02-15T16:17:03.739Z,27.37
2019-02-15T16:19:29.538Z,27.01
2019-02-15T16:21:58.126Z,26.67
2019-02-15T16:24:23.906Z,26.72
2019-02-15T16:26:52.483Z,26.92
2019-02-15T16:29:18.266Z,28.14
2019-02-15T16:31:48.590Z,27.79
2019-02-15T16:34:14.416Z,28.44
2019-02-15T16:36:43.321Z,28.31
2019-02-15T16:39:09.092Z,28.11
2019-02-15T16:41:36.933Z,28.95
2019-02-15T16:44:02.754Z,29.93
2019-02-15T16:46:28.552Z,30.40
2019-02-15T16:48:54.374Z,30.56
2019-02-15T16:51:20.196Z,31.44
2019-02-15T16:53:49.333Z,32.10
2019-02-15T16:56:15.421Z,32.53
2019-02-15T16:58:43.983Z,32.71
2019-02-15T17:01:09.807Z,33.19
2019-02-15T17:03:38.342Z,33.54
2019-02-15T17:06:04.172Z,34.22
2019-02-15T17:08:33.019Z,34.70
2019-02-15T17:10:59.025Z,34.97
2019-02-15T17:13:27.657Z,34.87
2019-02-15T17:15:53.721Z,35.81
2019-02-15T17:18:22.636Z,36.32
2019-02-15T17:20:48.426Z,35.86
2019-02-15T17:23:14.236Z,35.97
2019-02-15T17:25:40.343Z,35.96
2019-02-15T17:28:11.142Z,36.88
2019-02-15T17:30:37.029Z,36.79
2019-02-15T17:33:02.850Z,37.17
2019-02-15T17:35:28.640Z,36.63
2019-02-15T17:37:54.447Z,37.04
2019-02-15T17:40:25.193Z,37.57
2019-02-15T17:42:51.041Z,37.64
2019-02-15T17:45:19.615Z,37.50
2019-02-15T17:47:45.477Z,38.02
2019-02-15T17:50:14.333Z,37.98
2019-02-15T17:52:40.162Z,37.32
2019-02-15T17:55:09.310Z,36.97
2019-02-15T17:57:35.393Z,36.53
2019-02-15T18:00:01.570Z,36.60
2019-02-15T18:02:27.794Z,36.66
2019-02-15T18:04:53.626Z,37.61
2019-02-15T18:07:19.414Z,37.61
2019-02-15T18:09:45.226Z,37.75
2019-02-15T18:12:14.183Z,37.70
2019-02-15T18:14:40.022Z,38.49
2019-02-15T18:17:08.852Z,39.90
2019-02-15T18:19:34.806Z,41.17
2019-02-15T18:22:03.138Z,41.18
2019-02-15T18:24:29.011Z,40.41
2019-02-15T18:26:57.076Z,40.86
2019-02-15T18:29:23.148Z,41.17
2019-02-15T18:31:56.425Z,40.65
2019-02-15T18:34:22.551Z,39.96
2019-02-15T18:36:48.673Z,40.94
2019-02-15T18:39:14.513Z,40.65
2019-02-15T18:41:40.339Z,40.62
2019-02-15T18:44:06.221Z,41.28
2019-02-15T18:46:32.046Z,41.98
2019-02-15T18:49:00.952Z,41.99
2019-02-15T18:51:26.771Z,42.41
2019-02-15T18:53:55.884Z,41.50
2019-02-15T18:56:21.765Z,41.15
2019-02-15T18:58:50.438Z,42.30
2019-02-15T19:01:16.236Z,42.93
2019-02-15T19:03:44.816Z,43.70
2019-02-15T19:06:10.609Z,44.58
2019-02-15T19:08:37.546Z,45.11
2019-02-15T19:11:03.462Z,44.91
2019-02-15T19:13:29.567Z,45.32
2019-02-15T19:15:57.854Z,45.78
2019-02-15T19:18:23.950Z,44.02
2019-02-15T19:20:49.747Z,44.65
2019-02-15T19:23:15.839Z,43.52
2019-02-15T19:25:44.493Z,43.11
2019-02-15T19:28:10.306Z,42.67
2019-02-15T19:30:40.782Z,42.40
2019-02-15T19:33:06.966Z,43.74
2019-02-15T19:35:36.295Z,43.30
2019-02-15T19:38:02.145Z,44.12
2019-02-15T19:40:28.374Z,45.50
2019-02-15T19:43:00.705Z,45.04
2019-02-15T19:45:26.525Z,45.52
2019-02-15T19:47:52.314Z,43.68
2019-02-15T19:50:18.133Z,43.32
2019-02-15T19:52:45.689Z,43.16
2019-02-15T19:55:11.790Z,43.21
2019-02-15T19:57:37.623Z,43.27
2019-02-15T20:00:07.245Z,43.43
2019-02-15T20:02:33.051Z,43.57
2019-02-15T20:04:58.858Z,44.06
2019-02-15T20:07:25.301Z,44.35
2019-02-15T20:09:51.124Z,44.69
2019-02-15T20:12:20.226Z,45.38
2019-02-15T20:14:46.306Z,45.71
2019-02-15T20:17:15.138Z,45.80
2019-02-15T20:19:48.222Z,46.06
2019-02-15T20:22:08.662Z,46.38
2019-02-15T20:24:34.559Z,46.65
2019-02-15T20:27:00.356Z,46.91
2019-02-15T20:29:26.155Z,47.35
2019-02-15T20:31:52.021Z,47.63
2019-02-15T20:34:20.595Z,47.82
2019-02-15T20:36:46.736Z,47.88
2019-02-15T20:39:15.860Z,48.04
2019-02-15T20:41:41.670Z,48.13
2019-02-15T20:44:11.312Z,48.27
2019-02-15T20:46:37.423Z,48.37
2019-02-15T20:49:06.303Z,48.56
2019-02-15T20:51:32.132Z,48.63
2019-02-15T20:54:01.020Z,48.66
2019-02-15T20:56:26.822Z,48.65
2019-02-15T20:58:55.539Z,48.59
2019-02-15T21:01:21.340Z,48.70
2019-02-15T21:03:47.149Z,48.79
2019-02-15T21:06:14.584Z,49.01
2019-02-15T21:08:40.624Z,48.96
2019-02-15T21:11:06.413Z,49.34
2019-02-15T21:13:32.538Z,49.58
2019-02-15T21:16:01.398Z,49.75
2019-02-15T21:18:27.196Z,49.88
2019-02-15T21:20:56.064Z,50.33
2019-02-15T21:23:21.894Z,50.12
2019-02-15T21:25:51.072Z,50.39
2019-02-15T21:28:16.883Z,50.28
2019-02-15T21:30:45.759Z,50.41
2019-02-15T21:33:11.577Z,50.19
2019-02-15T21:35:40.486Z,50.52
2019-02-15T21:38:06.423Z,51.04
2019-02-15T21:40:32.240Z,50.85
2019-02-15T21:42:58.059Z,51.05
2019-02-15T21:45:23.999Z,50.93
2019-02-15T21:47:53.305Z,50.72
2019-02-15T21:50:19.106Z,51.42
2019-02-15T21:52:48.060Z,51.98
2019-02-15T21:55:15.073Z,51.87
2019-02-15T21:57:40.890Z,52.27
2019-02-15T22:00:21.298Z,52.02
2019-02-15T22:02:47.123Z,53.07
2019-02-15T22:05:13.701Z,53.87
2019-02-15T22:07:39.526Z,54.08
2019-02-15T22:10:07.929Z,54.14
2019-02-15T22:12:34.072Z,54.46
2019-02-15T22:14:59.867Z,55.07
2019-02-15T22:17:25.975Z,55.61
2019-02-15T22:19:52.024Z,55.77
2019-02-15T22:22:17.834Z,56.13
2019-02-15T22:24:43.653Z,56.28
2019-02-15T22:27:09.744Z,56.51
2019-02-15T22:29:35.562Z,56.63
2019-02-15T22:32:01.375Z,56.83
2019-02-15T22:34:27.181Z,57.11
2019-02-15T22:36:53.005Z,57.34
2019-02-15T22:39:20.507Z,57.15
2019-02-15T22:41:46.324Z,57.29
2019-02-15T22:44:15.311Z,58.10
2019-02-15T22:46:41.095Z,58.09
2019-02-15T22:49:43.107Z,58.38
2019-02-15T22:52:01.319Z,58.55
2019-02-15T22:54:27.125Z,59.53
2019-02-15T22:56:53.220Z,59.26
2019-02-15T22:59:19.295Z,59.59
2019-02-15T23:01:45.379Z,59.74
2019-02-15T23:04:11.462Z,59.93
2019-02-15T23:06:37.356Z,60.23
2019-02-15T23:09:05.046Z,60.44
2019-02-15T23:11:31.318Z,60.30
2019-02-15T23:13:57.414Z,59.86
2019-02-15T23:16:23.503Z,60.00
2019-02-15T23:18:49.415Z,60.23
2019-02-15T23:21:15.251Z,60.21
2019-02-15T23:23:41.348Z,60.48
2019-02-15T23:26:07.165Z,59.82
2019-02-15T23:28:32.988Z,60.05
2019-02-15T23:30:59.105Z,61.03
2019-02-15T23:33:24.907Z,61.03
2019-02-15T23:35:51.018Z,61.16
2019-02-15T23:38:16.837Z,61.42
2019-02-15T23:40:42.939Z,61.27
2019-02-15T23:43:09.028Z,61.11
2019-02-15T23:45:34.875Z,60.78
2019-02-15T23:48:00.973Z,61.13
2019-02-15T23:50:26.764Z,61.36
2019-02-15T23:52:52.822Z,61.41
2019-02-15T23:55:18.895Z,61.67
2019-02-15T23:57:48.181Z,61.84
